Time;durP1;ratioP1;P1;durP2;ratioP2;P2;SDS_P1;SDS_P2;PMS_P1;PMS_P2;Temp;Humidity;BMP_temperature;BMP_pressure;BME280_temperature;BME280_humidity;BME280_pressure;Samples;Min_cycle;Max_cycle;Signal;HPM_P1;HPM_P2
2023/12/19 00:00:29;;;;;;;170.60;77.53;;;7.30;89.70;;;;;;5023970;28;20057;-77
2023/12/19 00:02:57;;;;;;;182.57;79.10;;;7.40;89.70;;;;;;5028127;28;20503;-76
2023/12/19 00:05:23;;;;;;;185.60;80.23;;;7.30;89.70;;;;;;5027348;28;20049;-77
2023/12/19 00:07:49;;;;;;;185.37;76.47;;;7.30;89.70;;;;;;5019806;28;20370;-74
2023/12/19 00:10:15;;;;;;;199.73;77.77;;;7.30;89.70;;;;;;5017858;28;20128;-76
2023/12/19 00:12:41;;;;;;;196.60;76.77;;;7.30;89.70;;;;;;5028738;28;20420;-76
2023/12/19 00:15:07;;;;;;;169.57;74.43;;;7.20;89.70;;;;;;5008310;28;20128;-77
2023/12/19 00:17:33;;;;;;;181.90;77.20;;;7.20;89.70;;;;;;5014891;28;20103;-76
2023/12/19 00:19:58;;;;;;;171.57;72.37;;;7.20;89.50;;;;;;5027154;28;20057;-76
2023/12/19 00:22:24;;;;;;;169.90;74.03;;;7.20;89.60;;;;;;5027104;28;20049;-76
2023/12/19 00:24:53;;;;;;;157.73;70.30;;;7.20;89.60;;;;;;5027558;28;20108;-77
2023/12/19 00:27:19;;;;;;;171.47;69.60;;;7.20;89.60;;;;;;5027433;28;20049;-76
2023/12/19 00:29:44;;;;;;;169.43;72.17;;;7.20;89.70;;;;;;5025865;28;20045;-76
2023/12/19 00:32:10;;;;;;;168.20;80.47;;;7.20;89.70;;;;;;5027286;28;20136;-76
2023/12/19 00:34:36;;;;;;;164.97;70.37;;;7.20;89.70;;;;;;5028078;28;20048;-76
2023/12/19 00:37:02;;;;;;;172.43;67.27;;;7.20;89.70;;;;;;5027465;28;20054;-76
2023/12/19 00:39:28;;;;;;;161.67;72.27;;;7.20;89.70;;;;;;5028462;28;20042;-76
2023/12/19 00:41:54;;;;;;;159.90;72.37;;;7.20;89.70;;;;;;5025388;28;20490;-76
2023/12/19 00:44:19;;;;;;;172.63;74.80;;;7.20;89.70;;;;;;5008185;28;20552;-76
2023/12/19 00:46:45;;;;;;;168.17;71.93;;;7.20;89.60;;;;;;5007535;28;20050;-77
2023/12/19 00:49:11;;;;;;;161.43;68.07;;;7.20;89.70;;;;;;5006965;28;20057;-76
2023/12/19 00:51:37;;;;;;;169.33;70.77;;;7.20;89.60;;;;;;5008319;28;20140;-76
2023/12/19 00:54:03;;;;;;;172.50;69.80;;;7.20;89.70;;;;;;5017865;28;20056;-76
2023/12/19 00:56:29;;;;;;;152.57;68.30;;;7.20;89.70;;;;;;5027440;28;20076;-76
2023/12/19 00:58:55;;;;;;;160.87;71.30;;;7.20;89.70;;;;;;5027722;28;20049;-76
2023/12/19 01:01:25;;;;;;;166.77;71.00;;;7.20;89.70;;;;;;5026882;28;20100;-76
2023/12/19 01:03:51;;;;;;;153.97;69.10;;;7.20;89.80;;;;;;5028411;28;20046;-75
2023/12/19 01:06:16;;;;;;;167.33;73.13;;;7.20;89.80;;;;;;5012703;28;20053;-76
2023/12/19 01:08:42;;;;;;;156.00;66.40;;;7.20;89.70;;;;;;5028331;28;20049;-76
2023/12/19 01:11:09;;;;;;;150.73;66.33;;;7.20;89.80;;;;;;5025861;28;20144;-76
2023/12/19 01:13:38;;;;;;;147.03;67.80;;;7.20;89.80;;;;;;5026378;28;20099;-77
2023/12/19 01:16:05;;;;;;;160.07;69.03;;;7.20;89.70;;;;;;5026146;28;20413;-76
2023/12/19 01:18:31;;;;;;;169.60;67.07;;;7.20;89.80;;;;;;5025679;28;20050;-76
2023/12/19 01:20:57;;;;;;;138.13;66.13;;;7.20;89.80;;;;;;5007166;28;20054;-76
2023/12/19 01:23:25;;;;;;;154.07;67.30;;;7.20;89.80;;;;;;5022496;28;20064;-76
2023/12/19 01:25:51;;;;;;;148.70;65.20;;;7.20;89.80;;;;;;5025429;28;20100;-76
2023/12/19 01:28:16;;;;;;;147.03;64.07;;;7.20;89.80;;;;;;5027067;28;20049;-76
2023/12/19 01:30:42;;;;;;;138.93;67.77;;;7.20;89.70;;;;;;5008935;28;20406;-77
2023/12/19 01:33:09;;;;;;;133.43;63.43;;;7.20;89.80;;;;;;5020643;28;20512;-77
2023/12/19 01:35:35;;;;;;;131.97;61.33;;;7.20;89.80;;;;;;5026644;28;20568;-76
2023/12/19 01:38:01;;;;;;;130.00;66.87;;;7.20;89.80;;;;;;5007121;28;20366;-77
2023/12/19 01:40:31;;;;;;;125.00;59.13;;;7.20;89.80;;;;;;5006729;28;20112;-76
2023/12/19 01:43:00;;;;;;;125.53;62.90;;;7.20;89.90;;;;;;5006085;28;20052;-78
2023/12/19 01:45:27;;;;;;;114.73;57.63;;;7.20;89.80;;;;;;5025599;28;20099;-76
2023/12/19 01:47:53;;;;;;;113.73;59.97;;;7.20;89.80;;;;;;5025512;28;20053;-77
2023/12/19 01:50:20;;;;;;;112.47;55.63;;;7.20;89.80;;;;;;5025032;28;20041;-76
2023/12/19 01:52:54;;;;;;;106.30;55.13;;;7.20;89.80;;;;;;5026726;28;20560;-77
2023/12/19 01:55:22;;;;;;;113.30;55.50;;;7.20;89.80;;;;;;5005277;28;20404;-77
2023/12/19 01:57:48;;;;;;;107.70;55.17;;;7.20;89.80;;;;;;5008031;28;20081;-76
2023/12/19 02:00:14;;;;;;;100.10;51.40;;;7.20;89.70;;;;;;5026211;28;20056;-76
2023/12/19 02:02:40;;;;;;;95.93;49.60;;;7.20;89.70;;;;;;5026482;28;20440;-77
2023/12/19 02:05:07;;;;;;;96.90;51.13;;;7.30;89.60;;;;;;5013401;28;20095;-76
2023/12/19 02:07:33;;;;;;;94.40;49.17;;;7.20;89.70;;;;;;5026277;28;20057;-76
2023/12/19 02:10:00;;;;;;;95.93;49.67;;;7.30;89.60;;;;;;5025303;28;20056;-76
2023/12/19 02:12:26;;;;;;;93.47;47.80;;;7.30;89.70;;;;;;5026245;28;20456;-78
2023/12/19 02:14:52;;;;;;;87.77;47.43;;;7.30;89.70;;;;;;5026392;28;20110;-76
2023/12/19 02:17:19;;;;;;;86.53;45.30;;;7.30;89.60;;;;;;5022722;28;20488;-76
2023/12/19 02:19:48;;;;;;;85.40;46.77;;;7.40;89.60;;;;;;5025248;28;20056;-77
2023/12/19 02:22:15;;;;;;;91.67;47.03;;;7.40;89.60;;;;;;5024781;28;20060;-76
2023/12/19 02:24:41;;;;;;;95.03;48.17;;;7.40;89.50;;;;;;5025520;28;20076;-76
2023/12/19 02:27:08;;;;;;;84.47;44.53;;;7.30;89.60;;;;;;5025307;28;20514;-75
2023/12/19 02:29:34;;;;;;;88.00;46.40;;;7.30;89.50;;;;;;5023936;28;20491;-76
2023/12/19 02:32:00;;;;;;;89.10;47.13;;;7.30;89.50;;;;;;5022616;28;20140;-76
2023/12/19 02:34:26;;;;;;;83.47;44.70;;;7.30;89.40;;;;;;5024196;28;20045;-76
2023/12/19 02:36:52;;;;;;;83.23;48.03;;;7.20;89.50;;;;;;5025912;28;20111;-77
2023/12/19 02:39:17;;;;;;;80.67;45.57;;;7.30;89.50;;;;;;5025992;28;20073;-76
2023/12/19 02:41:43;;;;;;;90.23;47.97;;;7.30;89.40;;;;;;5024842;28;20422;-76
2023/12/19 02:44:10;;;;;;;86.40;47.30;;;7.20;89.50;;;;;;5006224;28;20520;-79
2023/12/19 02:46:36;;;;;;;88.20;46.57;;;7.20;89.40;;;;;;5019270;28;20810;-77
2023/12/19 02:49:02;;;;;;;83.53;47.87;;;7.30;89.40;;;;;;5025589;28;20104;-78
2023/12/19 02:51:29;;;;;;;79.70;44.83;;;7.20;89.40;;;;;;5025975;28;20507;-77
2023/12/19 02:53:58;;;;;;;84.00;46.17;;;7.20;89.40;;;;;;5025325;28;20052;-75
2023/12/19 02:56:24;;;;;;;82.20;43.93;;;7.20;89.40;;;;;;5006220;28;20065;-77
2023/12/19 02:58:50;;;;;;;77.33;43.33;;;7.20;89.40;;;;;;5007704;28;20061;-77
2023/12/19 03:01:16;;;;;;;65.10;36.93;;;7.20;89.40;;;;;;5025213;28;20420;-76
2023/12/19 03:03:43;;;;;;;65.43;36.33;;;7.20;89.40;;;;;;5025002;28;20050;-77
2023/12/19 03:06:09;;;;;;;68.47;35.77;;;7.20;89.30;;;;;;5024986;28;20405;-76
2023/12/19 03:08:35;;;;;;;61.20;35.60;;;7.20;89.30;;;;;;5026052;28;20135;-76
2023/12/19 03:11:01;;;;;;;64.20;36.57;;;7.20;89.20;;;;;;5018756;28;20396;-76
2023/12/19 03:13:27;;;;;;;67.03;39.30;;;7.20;89.30;;;;;;5025177;28;20596;-76
2023/12/19 03:15:53;;;;;;;70.57;38.93;;;7.20;89.20;;;;;;5024696;28;20048;-76
2023/12/19 03:18:23;;;;;;;63.63;37.10;;;7.20;89.20;;;;;;5024841;28;20052;-77
2023/12/19 03:20:51;;;;;;;48.65;27.63;;;7.20;89.20;;;;;;5025530;28;20060;-77
2023/12/19 03:23:18;;;;;;;85.37;39.57;;;7.20;89.20;;;;;;5025574;28;20140;-76
2023/12/19 03:25:44;;;;;;;71.83;39.80;;;7.20;89.20;;;;;;5025602;28;20407;-77
2023/12/19 03:28:10;;;;;;;81.17;41.57;;;7.20;89.20;;;;;;5024851;28;20060;-76
2023/12/19 03:30:36;;;;;;;76.23;38.93;;;7.20;89.20;;;;;;5008399;28;20046;-77
2023/12/19 03:33:02;;;;;;;81.47;40.60;;;7.20;89.20;;;;;;5017525;28;20053;-77
2023/12/19 03:35:28;;;;;;;68.20;39.50;;;7.20;89.20;;;;;;5025211;28;20053;-77
2023/12/19 03:37:53;;;;;;;69.53;37.40;;;7.10;89.30;;;;;;5026054;28;20053;-76
2023/12/19 03:40:19;;;;;;;70.83;36.73;;;7.10;89.20;;;;;;5024702;28;20057;-76
2023/12/19 03:42:45;;;;;;;69.57;37.90;;;7.10;89.30;;;;;;5018885;28;20060;-76
2023/12/19 03:45:10;;;;;;;70.77;37.77;;;7.10;89.20;;;;;;5023257;28;20462;-76
2023/12/19 03:47:37;;;;;;;69.07;37.63;;;7.10;89.30;;;;;;5025880;28;20049;-76
2023/12/19 03:50:04;;;;;;;63.73;36.60;;;7.10;89.30;;;;;;5024344;28;20516;-76
2023/12/19 03:52:30;;;;;;;66.90;37.10;;;7.10;89.30;;;;;;5026050;28;20042;-77
2023/12/19 03:54:56;;;;;;;72.23;35.83;;;7.00;89.30;;;;;;5029051;28;20048;-76
2023/12/19 03:57:22;;;;;;;67.13;35.73;;;7.00;89.30;;;;;;5028422;28;20050;-76
2023/12/19 03:59:47;;;;;;;65.93;34.67;;;7.00;89.30;;;;;;5028904;28;20053;-76
2023/12/19 04:02:13;;;;;;;63.10;33.37;;;7.00;89.40;;;;;;5028161;28;20053;-76
2023/12/19 04:04:39;;;;;;;58.20;34.13;;;7.00;89.30;;;;;;5020337;28;20050;-77
2023/12/19 04:07:05;;;;;;;68.13;34.13;;;7.00;89.40;;;;;;5006888;28;20060;-76
2023/12/19 04:09:31;;;;;;;59.13;32.67;;;7.10;89.30;;;;;;5013418;28;20050;-76
2023/12/19 04:12:01;;;;;;;56.70;30.47;;;7.00;89.30;;;;;;5028147;28;20068;-75
2023/12/19 04:14:28;;;;;;;51.05;31.67;;;7.00;89.40;;;;;;5028804;28;20146;-77
2023/12/19 04:16:53;;;;;;;51.23;29.17;;;7.00;89.40;;;;;;5027981;28;20064;-76
2023/12/19 04:19:21;;;;;;;49.60;28.67;;;7.00;89.50;;;;;;5027006;28;20037;-76
2023/12/19 04:21:47;;;;;;;45.10;26.30;;;7.00;89.40;;;;;;5026479;28;20501;-76
2023/12/19 04:24:13;;;;;;;44.60;26.00;;;7.00;89.30;;;;;;5028588;28;20064;-76
2023/12/19 04:26:38;;;;;;;42.83;25.10;;;7.00;89.40;;;;;;5027607;28;20045;-77
2023/12/19 04:29:04;;;;;;;47.93;23.77;;;7.00;89.40;;;;;;5023799;28;20122;-76
2023/12/19 04:31:30;;;;;;;42.20;24.60;;;7.00;89.50;;;;;;5008748;28;20076;-77
2023/12/19 04:33:56;;;;;;;36.13;23.53;;;7.00;89.40;;;;;;5027896;28;20501;-76
2023/12/19 04:36:21;;;;;;;45.70;23.40;;;7.00;89.40;;;;;;5025935;28;20411;-76
2023/12/19 04:38:47;;;;;;;41.60;22.37;;;7.00;89.40;;;;;;5028443;28;20057;-77
2023/12/19 04:41:13;;;;;;;40.20;21.40;;;7.00;89.40;;;;;;5026914;28;20060;-76
2023/12/19 04:43:38;;;;;;;38.47;22.50;;;7.00;89.40;;;;;;5013846;28;20435;-76
2023/12/19 04:46:08;;;;;;;32.80;20.97;;;7.00;89.40;;;;;;5022118;28;20077;-76
2023/12/19 04:48:34;;;;;;;34.33;22.33;;;7.00;89.40;;;;;;5007979;28;20123;-76
2023/12/19 04:51:00;;;;;;;35.13;19.93;;;7.00;89.40;;;;;;5026513;28;21370;-76
2023/12/19 04:53:26;;;;;;;33.93;20.03;;;7.00;89.40;;;;;;5014653;28;20494;-76
2023/12/19 04:55:52;;;;;;;33.53;19.90;;;7.00;89.50;;;;;;5023054;28;20051;-76
2023/12/19 04:58:18;;;;;;;30.77;19.10;;;7.00;89.50;;;;;;5026999;28;20049;-77
2023/12/19 05:00:43;;;;;;;33.57;19.03;;;7.00;89.50;;;;;;5010210;28;20064;-76
2023/12/19 05:03:10;;;;;;;29.27;19.10;;;7.00;89.50;;;;;;5007433;28;20057;-76
2023/12/19 05:05:35;;;;;;;32.90;20.03;;;7.00;89.50;;;;;;5022598;28;20096;-76
2023/12/19 05:08:01;;;;;;;30.00;17.93;;;7.00;89.60;;;;;;5020697;28;20539;-76
2023/12/19 05:10:27;;;;;;;27.13;18.37;;;7.00;89.50;;;;;;5022939;28;20053;-77
2023/12/19 05:12:53;;;;;;;28.30;17.30;;;7.10;89.40;;;;;;5027003;28;20653;-76
2023/12/19 05:15:18;;;;;;;28.57;17.10;;;7.10;89.50;;;;;;5024623;28;20489;-76
2023/12/19 05:17:44;;;;;;;22.43;14.63;;;7.10;89.50;;;;;;5026886;28;20195;-76
2023/12/19 05:20:10;;;;;;;26.13;16.90;;;7.10;89.40;;;;;;5024520;28;20058;-76
2023/12/19 05:22:36;;;;;;;23.90;17.50;;;7.10;89.50;;;;;;5026994;28;20048;-77
2023/12/19 05:25:02;;;;;;;23.77;16.33;;;7.20;89.40;;;;;;5025794;28;20206;-77
2023/12/19 05:27:27;;;;;;;20.90;14.63;;;7.20;89.40;;;;;;5026491;28;20460;-76
2023/12/19 05:29:53;;;;;;;21.67;15.10;;;7.20;89.40;;;;;;5016734;28;20262;-76
2023/12/19 05:32:18;;;;;;;24.30;17.30;;;7.20;89.40;;;;;;5013764;28;20073;-76
2023/12/19 05:34:44;;;;;;;21.27;15.43;;;7.20;89.40;;;;;;5027038;28;20076;-76
2023/12/19 05:37:10;;;;;;;25.43;16.20;;;7.20;89.40;;;;;;5025893;28;20064;-76
2023/12/19 05:39:35;;;;;;;24.00;16.17;;;7.20;89.30;;;;;;5026309;28;20041;-76
2023/12/19 05:42:01;;;;;;;25.60;15.60;;;7.20;89.40;;;;;;5018739;28;20484;-77
2023/12/19 05:44:27;;;;;;;22.03;15.43;;;7.20;89.30;;;;;;5027274;28;20057;-77
2023/12/19 05:46:53;;;;;;;23.77;16.00;;;7.20;89.40;;;;;;5025358;28;20135;-76
2023/12/19 05:49:19;;;;;;;22.77;15.60;;;7.20;89.30;;;;;;5025761;28;20046;-77
2023/12/19 05:51:45;;;;;;;23.90;15.90;;;7.20;89.40;;;;;;5025487;28;20468;-77
2023/12/19 05:54:10;;;;;;;23.17;16.17;;;7.20;89.40;;;;;;5024787;28;20120;-78
2023/12/19 05:56:36;;;;;;;22.87;14.70;;;7.20;89.30;;;;;;5026074;28;20393;-77
2023/12/19 05:59:02;;;;;;;22.30;15.17;;;7.20;89.40;;;;;;5023580;28;20064;-77
2023/12/19 06:01:28;;;;;;;21.93;15.57;;;7.20;89.40;;;;;;5020558;28;20052;-77
2023/12/19 06:03:54;;;;;;;20.27;15.57;;;7.20;89.40;;;;;;5026197;28;20057;-77
2023/12/19 06:06:20;;;;;;;23.07;15.13;;;7.20;89.40;;;;;;5020399;28;20497;-76
2023/12/19 06:08:46;;;;;;;20.73;14.80;;;7.30;89.40;;;;;;5025703;28;20049;-77
2023/12/19 06:11:12;;;;;;;21.73;14.33;;;7.20;89.50;;;;;;5021760;28;20053;-76
2023/12/19 06:13:38;;;;;;;24.50;16.97;;;7.30;89.40;;;;;;5026524;28;20123;-77
2023/12/19 06:16:07;;;;;;;22.13;16.43;;;7.30;89.40;;;;;;5024596;28;20049;-76
2023/12/19 06:18:33;;;;;;;18.93;13.63;;;7.30;89.50;;;;;;5022430;28;20446;-77
2023/12/19 06:21:01;;;;;;;21.90;15.57;;;7.30;89.40;;;;;;5010173;28;20045;-76
2023/12/19 06:23:27;;;;;;;22.00;15.47;;;7.40;89.50;;;;;;5036313;28;20061;-77
2023/12/19 06:25:54;;;;;;;18.73;14.37;;;7.40;89.40;;;;;;5023340;28;20516;-76
2023/12/19 06:28:20;;;;;;;19.13;13.83;;;7.40;89.50;;;;;;5023871;28;20057;-76
2023/12/19 06:30:45;;;;;;;19.03;14.37;;;7.40;89.50;;;;;;5013490;28;20057;-76
2023/12/19 06:33:11;;;;;;;19.60;14.97;;;7.40;89.50;;;;;;5020769;28;20068;-76
2023/12/19 06:35:43;;;;;;;18.37;14.83;;;7.40;89.40;;;;;;5023596;28;20110;-76
2023/12/19 06:38:08;;;;;;;;;;;7.40;89.40;;;;;;5023641;28;20159;-76
2023/12/19 06:40:35;;;;;;;22.37;15.27;;;7.40;89.50;;;;;;5020515;28;20008;-76
2023/12/19 06:43:03;;;;;;;21.60;18.20;;;7.40;89.50;;;;;;5010534;28;20058;-76
2023/12/19 06:45:29;;;;;;;25.33;16.73;;;7.50;89.50;;;;;;5020335;28;20505;-77
2023/12/19 06:47:54;;;;;;;25.97;17.70;;;7.40;89.50;;;;;;5022941;28;20087;-78
2023/12/19 06:50:20;;;;;;;28.13;18.63;;;7.50;89.40;;;;;;5023031;28;20069;-77
2023/12/19 06:52:46;;;;;;;26.63;19.50;;;7.40;89.40;;;;;;5022733;28;20041;-77
2023/12/19 06:55:12;;;;;;;28.13;18.53;;;7.50;89.40;;;;;;5020388;28;20547;-76
2023/12/19 06:57:38;;;;;;;28.33;21.37;;;7.50;89.40;;;;;;5005826;28;20569;-77
2023/12/19 07:00:06;;;;;;;26.97;18.27;;;7.50;89.40;;;;;;5009834;28;20603;-77
2023/12/19 07:02:32;;;;;;;27.83;18.60;;;7.50;89.50;;;;;;5016941;28;20207;-78
2023/12/19 07:04:58;;;;;;;27.73;20.73;;;7.50;89.40;;;;;;5025341;28;20568;-76
2023/12/19 07:07:24;;;;;;;27.87;19.37;;;7.50;89.40;;;;;;5021755;28;20119;-77
2023/12/19 07:09:50;;;;;;;27.00;19.13;;;7.50;89.40;;;;;;5022746;28;20072;-76
2023/12/19 07:12:16;;;;;;;28.70;19.17;;;7.50;89.40;;;;;;5027075;28;20063;-78
2023/12/19 07:14:41;;;;;;;27.00;19.30;;;7.50;89.50;;;;;;5037325;28;20389;-77
2023/12/19 07:17:07;;;;;;;32.70;22.33;;;7.50;89.50;;;;;;5026118;28;20184;-76
2023/12/19 07:19:33;;;;;;;29.57;19.33;;;7.50;89.40;;;;;;5025501;28;20129;-76
2023/12/19 07:22:00;;;;;;;32.03;22.20;;;7.50;89.40;;;;;;5016874;28;20102;-76
2023/12/19 07:24:26;;;;;;;30.80;22.10;;;7.50;89.50;;;;;;5031446;28;20057;-76
2023/12/19 07:26:52;;;;;;;32.13;21.07;;;7.50;89.40;;;;;;5022889;28;20138;-76
2023/12/19 07:29:19;;;;;;;29.30;20.60;;;7.50;89.40;;;;;;5037245;28;20064;-77
2023/12/19 07:31:44;;;;;;;32.20;22.63;;;7.50;89.60;;;;;;5026108;28;20057;-77
2023/12/19 07:34:10;;;;;;;30.07;20.17;;;7.50;89.60;;;;;;5028359;28;20104;-76
2023/12/19 07:36:36;;;;;;;31.30;21.07;;;7.50;89.50;;;;;;5025271;28;20053;-76
2023/12/19 07:39:03;;;;;;;31.47;20.00;;;7.50;89.60;;;;;;5033877;28;20469;-76
2023/12/19 07:41:31;;;;;;;26.07;18.20;;;7.50;89.50;;;;;;5032053;28;20697;-77
2023/12/19 07:43:57;;;;;;;24.80;17.47;;;7.50;89.50;;;;;;5040071;28;20445;-76
2023/12/19 07:46:23;;;;;;;36.80;33.20;;;7.50;89.60;;;;;;5022349;28;20107;-78
2023/12/19 07:48:49;;;;;;;24.70;17.20;;;7.50;89.60;;;;;;5028458;28;20080;-77
2023/12/19 07:51:16;;;;;;;22.30;15.60;;;7.50;89.70;;;;;;5027484;28;20501;-77
2023/12/19 07:53:42;;;;;;;22.97;16.00;;;7.60;89.60;;;;;;5028920;28;20404;-77
2023/12/19 07:56:08;;;;;;;21.10;15.10;;;7.60;89.60;;;;;;5028059;28;20053;-77
2023/12/19 07:58:33;;;;;;;21.23;16.17;;;7.60;89.60;;;;;;5029218;28;20057;-76
2023/12/19 08:00:59;;;;;;;19.93;14.60;;;7.60;89.60;;;;;;5027830;28;20129;-77
2023/12/19 08:03:29;;;;;;;23.20;16.40;;;7.60;89.60;;;;;;5029167;28;20060;-77
2023/12/19 08:05:56;;;;;;;22.67;15.67;;;7.60;89.60;;;;;;5027457;28;20052;-77
2023/12/19 08:08:25;;;;;;;22.60;15.90;;;7.60;89.60;;;;;;5029594;28;20363;-76
2023/12/19 08:10:53;;;;;;;24.10;16.00;;;7.60;89.60;;;;;;5021494;28;20435;-77
2023/12/19 08:13:20;;;;;;;20.90;15.97;;;7.60;89.60;;;;;;5028904;28;20049;-76
2023/12/19 08:15:50;;;;;;;23.13;16.03;;;7.60;89.50;;;;;;5028169;28;20092;-77
2023/12/19 08:18:16;;;;;;;23.23;15.90;;;7.60;89.60;;;;;;5028137;28;20053;-77
2023/12/19 08:20:42;;;;;;;19.73;15.80;;;7.60;89.60;;;;;;5027402;28;20053;-77
2023/12/19 08:23:08;;;;;;;24.63;16.23;;;7.60;89.60;;;;;;5027392;28;20084;-77
2023/12/19 08:25:34;;;;;;;21.97;16.10;;;7.70;89.60;;;;;;5028147;28;20411;-76
2023/12/19 08:28:01;;;;;;;20.07;15.40;;;7.70;89.60;;;;;;5028337;28;20119;-76
2023/12/19 08:30:27;;;;;;;18.07;13.90;;;7.70;89.70;;;;;;5013347;28;20050;-77
2023/12/19 08:32:54;;;;;;;20.40;13.40;;;7.70;89.60;;;;;;5020127;28;20096;-76
2023/12/19 08:35:20;;;;;;;19.40;13.43;;;7.80;89.60;;;;;;5027852;28;20049;-77
2023/12/19 08:37:46;;;;;;;19.43;13.23;;;7.80;89.50;;;;;;5027036;28;20041;-76
2023/12/19 08:40:12;;;;;;;21.17;14.37;;;7.70;89.60;;;;;;5026148;28;20069;-76
2023/12/19 08:42:38;;;;;;;21.13;14.83;;;7.80;89.60;;;;;;5026645;28;20053;-76
2023/12/19 08:45:04;;;;;;;21.73;15.07;;;7.80;89.60;;;;;;5024059;28;20052;-76
2023/12/19 08:47:30;;;;;;;24.33;16.37;;;7.80;89.50;;;;;;5008792;28;20089;-77
2023/12/19 08:49:59;;;;;;;26.70;16.83;;;7.80;89.50;;;;;;5008427;28;20073;-77
2023/12/19 08:52:26;;;;;;;26.00;17.17;;;7.80;89.50;;;;;;5026888;28;20077;-76
2023/12/19 08:54:52;;;;;;;29.33;19.27;;;7.80;89.60;;;;;;5011727;28;20157;-77
2023/12/19 08:57:18;;;;;;;26.53;18.07;;;7.80;89.60;;;;;;5007073;28;20584;-77
2023/12/19 08:59:43;;;;;;;29.70;19.40;;;7.80;89.60;;;;;;5019677;28;20061;-76
2023/12/19 09:02:10;;;;;;;33.97;21.73;;;7.80;89.60;;;;;;5023028;28;20060;-77
2023/12/19 09:04:36;;;;;;;31.17;20.97;;;7.80;89.60;;;;;;5024746;28;20053;-77
2023/12/19 09:07:06;;;;;;;34.80;21.00;;;7.80;89.60;;;;;;5023482;28;20064;-76
2023/12/19 09:09:31;;;;;;;38.63;22.07;;;7.90;89.70;;;;;;5024787;28;20049;-76
2023/12/19 09:11:57;;;;;;;37.57;23.70;;;7.90;89.60;;;;;;5023733;28;20054;-77
2023/12/19 09:14:23;;;;;;;42.87;32.50;;;7.90;89.60;;;;;;5024280;28;20144;-76
2023/12/19 09:16:49;;;;;;;41.07;24.07;;;7.90;89.70;;;;;;5023367;28;20053;-77
2023/12/19 09:19:18;;;;;;;38.77;23.83;;;8.00;89.70;;;;;;5022359;28;20578;-77
2023/12/19 09:21:44;;;;;;;36.63;22.90;;;8.00;89.80;;;;;;5023856;28;20085;-77
2023/12/19 09:24:10;;;;;;;38.63;23.00;;;8.00;89.70;;;;;;5023709;28;20155;-77
2023/12/19 09:26:38;;;;;;;33.07;22.23;;;8.00;89.80;;;;;;5023273;28;20203;-77
2023/12/19 09:29:06;;;;;;;44.47;31.40;;;8.00;89.70;;;;;;5021891;28;20527;-76
2023/12/19 09:31:32;;;;;;;36.27;23.63;;;8.00;89.80;;;;;;5023336;28;20065;-77
2023/12/19 09:33:58;;;;;;;39.50;23.07;;;8.10;89.80;;;;;;5024847;28;20107;-77
2023/12/19 09:36:27;;;;;;;36.13;22.70;;;8.10;89.90;;;;;;5023226;28;20045;-77
2023/12/19 09:38:52;;;;;;;34.47;21.23;;;8.10;89.90;;;;;;5024297;28;20409;-77
2023/12/19 09:41:18;;;;;;;33.60;21.53;;;8.10;89.80;;;;;;5022610;28;20053;-77
2023/12/19 09:43:44;;;;;;;38.00;29.37;;;8.10;89.80;;;;;;5021628;28;20056;-77
2023/12/19 09:46:13;;;;;;;35.63;21.37;;;8.20;89.90;;;;;;5022790;28;20046;-77
2023/12/19 09:48:42;;;;;;;32.57;20.73;;;8.20;89.90;;;;;;5023953;28;20111;-77
2023/12/19 09:51:17;;;;;;;31.33;20.40;;;8.20;89.90;;;;;;5022187;28;20052;-77
2023/12/19 09:53:46;;;;;;;30.90;19.93;;;8.20;89.90;;;;;;5023994;28;20116;-77
2023/12/19 09:56:11;;;;;;;30.53;19.27;;;8.20;89.90;;;;;;5023321;28;20579;-77
2023/12/19 09:58:38;;;;;;;29.27;19.10;;;8.20;89.90;;;;;;5023746;28;20108;-77
2023/12/19 10:01:04;;;;;;;32.63;18.80;;;8.20;89.80;;;;;;5022989;28;20530;-77
2023/12/19 10:03:30;;;;;;;32.77;19.87;;;8.20;89.90;;;;;;5023028;28;20053;-77
2023/12/19 10:05:59;;;;;;;30.90;19.03;;;8.20;89.80;;;;;;5023040;28;20451;-77
2023/12/19 10:08:24;;;;;;;30.27;18.50;;;8.20;89.80;;;;;;5021979;28;20149;-77
2023/12/19 10:10:57;;;;;;;36.30;19.40;;;8.20;89.90;;;;;;5028397;28;20057;-77
2023/12/19 10:13:27;;;;;;;31.50;17.83;;;8.30;89.80;;;;;;5022882;28;20654;-77
2023/12/19 10:16:05;;;;;;;30.17;18.40;;;8.30;89.80;;;;;;5021935;28;20053;-77
2023/12/19 10:18:31;;;;;;;27.40;18.03;;;8.30;89.90;;;;;;5014329;28;20046;-77
2023/12/19 10:21:10;;;;;;;35.33;18.43;;;8.30;89.80;;;;;;5022857;28;20132;-77
2023/12/19 10:23:37;;;;;;;27.70;16.87;;;8.30;89.80;;;;;;5015252;28;20072;-77
2023/12/19 10:26:06;;;;;;;26.00;17.40;;;8.30;89.80;;;;;;5022026;28;20045;-78
2023/12/19 10:28:32;;;;;;;26.10;17.03;;;8.30;89.90;;;;;;5022681;28;20049;-77
2023/12/19 10:31:11;;;;;;;31.73;17.63;;;8.30;89.80;;;;;;5017295;28;20132;-77
2023/12/19 10:33:40;;;;;;;31.93;18.00;;;8.30;89.80;;;;;;5015893;28;20049;-77
2023/12/19 10:36:06;;;;;;;28.47;16.63;;;8.40;89.90;;;;;;5020204;28;20132;-77
2023/12/19 10:38:45;;;;;;;30.37;17.37;;;8.40;89.90;;;;;;5015496;28;20180;-77
2023/12/19 10:41:22;;;;;;;26.87;16.17;;;8.40;90.00;;;;;;5015003;28;20056;-77
2023/12/19 10:43:50;;;;;;;30.47;16.57;;;8.40;89.90;;;;;;5030900;28;20136;-77
2023/12/19 10:46:18;;;;;;;33.70;16.80;;;8.40;90.00;;;;;;5013920;28;20132;-78
2023/12/19 10:48:44;;;;;;;32.97;17.17;;;8.50;89.90;;;;;;5014863;28;20057;-77
2023/12/19 10:51:14;;;;;;;29.10;16.87;;;8.50;90.00;;;;;;5017105;28;20053;-77
2023/12/19 10:53:48;;;;;;;32.10;17.27;;;8.50;90.00;;;;;;5014929;28;20049;-77
2023/12/19 10:56:20;;;;;;;36.03;18.37;;;8.60;90.00;;;;;;5016202;28;20065;-77
2023/12/19 10:58:52;;;;;;;33.20;18.00;;;8.60;90.10;;;;;;5018318;28;20497;-78
2023/12/19 11:01:22;;;;;;;38.97;18.20;;;8.60;90.00;;;;;;5016213;28;20133;-78
2023/12/19 11:04:00;;;;;;;36.70;18.43;;;8.60;90.00;;;;;;5019093;28;20052;-78
2023/12/19 11:06:33;;;;;;;40.30;19.03;;;8.60;90.10;;;;;;5026784;28;20465;-78
2023/12/19 11:09:05;;;;;;;37.97;20.13;;;8.60;90.10;;;;;;5027129;28;20615;-77
2023/12/19 11:11:36;;;;;;;34.60;19.00;;;8.70;90.10;;;;;;5026271;28;20049;-77
2023/12/19 11:14:04;;;;;;;30.02;19.90;;;8.70;90.00;;;;;;5026963;28;20542;-77
2023/12/19 11:16:36;;;;;;;35.50;18.13;;;8.70;90.10;;;;;;5026231;28;20053;-77
2023/12/19 11:19:05;;;;;;;;;;;8.70;90.10;;;;;;5026729;28;20057;-77
2023/12/19 11:21:49;;;;;;;39.57;18.90;;;8.70;90.10;;;;;;5025553;28;20332;-77
2023/12/19 11:24:21;;;;;;;38.63;20.40;;;8.80;90.10;;;;;;5027436;28;20565;-77
2023/12/19 11:27:02;;;;;;;33.57;18.50;;;8.80;90.10;;;;;;5025284;28;20416;-77
2023/12/19 11:29:50;;;;;;;34.40;20.67;;;8.80;90.20;;;;;;5020583;28;20080;-77
2023/12/19 11:32:28;;;;;;;34.13;20.20;;;8.80;90.10;;;;;;5025066;28;20107;-77
2023/12/19 11:35:07;;;;;;;38.80;19.97;;;8.80;90.10;;;;;;5026486;28;20119;-78
2023/12/19 11:37:34;;;;;;;29.93;18.33;;;8.90;90.20;;;;;;5025785;28;20112;-77
2023/12/19 11:40:00;;;;;;;36.73;20.23;;;8.90;90.20;;;;;;4992065;28;20057;-77
2023/12/19 11:42:37;;;;;;;33.40;18.83;;;8.90;90.20;;;;;;5011781;28;20057;-77
2023/12/19 11:45:18;;;;;;;31.77;19.67;;;8.90;90.20;;;;;;4999687;28;20053;-77
2023/12/19 11:47:45;;;;;;;44.93;23.60;;;8.90;90.20;;;;;;5025049;28;20055;-78
2023/12/19 11:50:11;;;;;;;35.27;20.87;;;8.90;90.10;;;;;;5037668;28;20268;-77
2023/12/19 11:52:37;;;;;;;38.33;21.70;;;8.90;90.20;;;;;;5039529;28;20049;-77
2023/12/19 11:55:05;;;;;;;34.57;21.40;;;9.00;90.10;;;;;;5045056;28;20044;-78
2023/12/19 11:57:32;;;;;;;35.33;20.53;;;9.00;90.10;;;;;;5038239;28;20057;-77
2023/12/19 11:59:59;;;;;;;28.57;18.33;;;9.00;90.20;;;;;;5039175;28;20329;-77
2023/12/19 12:02:36;;;;;;;26.30;17.00;;;9.00;90.00;;;;;;5038231;28;20076;-78
2023/12/19 12:05:10;;;;;;;25.63;16.33;;;9.00;90.10;;;;;;5018479;28;20347;-78
2023/12/19 12:08:02;;;;;;;24.27;15.83;;;9.00;90.00;;;;;;5046200;28;20079;-77
2023/12/19 12:10:27;;;;;;;23.10;15.57;;;9.00;90.00;;;;;;5039311;28;20087;-77
2023/12/19 12:12:55;;;;;;;20.93;14.20;;;8.90;90.00;;;;;;5038076;28;20524;-77
2023/12/19 12:15:23;;;;;;;18.60;14.17;;;8.90;89.90;;;;;;5026636;28;20052;-78
2023/12/19 12:17:50;;;;;;;19.10;14.37;;;8.90;89.90;;;;;;5033460;28;20382;-76
2023/12/19 12:20:24;;;;;;;20.00;13.53;;;8.90;89.80;;;;;;5043614;28;20049;-78
2023/12/19 12:22:52;;;;;;;19.90;13.43;;;8.90;89.90;;;;;;5044295;28;20164;-77
2023/12/19 12:25:19;;;;;;;18.40;13.33;;;8.90;89.80;;;;;;5031691;28;20136;-77
2023/12/19 12:27:45;;;;;;;18.23;12.13;;;8.90;89.90;;;;;;5039485;28;20057;-77
2023/12/19 12:30:11;;;;;;;17.40;12.93;;;8.90;89.80;;;;;;5029236;28;20053;-77
2023/12/19 12:32:38;;;;;;;18.07;12.60;;;8.90;89.90;;;;;;5025786;28;20060;-77
2023/12/19 12:35:30;;;;;;;18.73;12.87;;;8.90;89.90;;;;;;5025251;28;20626;-77